Time;durP1;ratioP1;P1;durP2;ratioP2;P2;SDS_P1;SDS_P2;PMS_P1;PMS_P2;Temp;Humidity;BMP_temperature;BMP_pressure;BME280_temperature;BME280_humidity;BME280_pressure;Samples;Min_cycle;Max_cycle;Signal;HPM_P1;HPM_P2
2021/05/08 00:22:15;;;;;;;7.60;2.78;;;4.90;99.90;;;;;;6205514;22;20511;-61
2021/05/08 00:36:47;;;;;;;10.50;2.40;;;5.20;99.90;;;;;;6181391;22;20217;31
2021/05/08 00:44:20;;;;;;;8.30;2.85;;;5.20;99.90;;;;;;6195136;22;20198;31
2021/05/08 00:58:52;;;;;;;6.53;2.67;;;5.30;99.90;;;;;;6180663;22;392980;31
2021/05/08 01:49:19;;;;;;;8.52;3.17;;;4.60;99.90;;;;;;6259959;22;20193;31
2021/05/08 02:02:43;;;;;;;10.93;3.00;;;4.50;99.90;;;;;;6195645;22;20198;31
2021/05/08 02:44:15;;;;;;;9.60;2.90;;;4.00;99.90;;;;;;6164404;23;21172;31
2021/05/08 02:49:08;;;;;;;13.63;3.40;;;4.00;99.90;;;;;;6334304;22;20692;31
2021/05/08 02:54:01;;;;;;;9.10;3.03;;;3.90;99.90;;;;;;6313940;22;487067;31
2021/05/08 03:17:15;;;;;;;11.57;3.17;;;3.90;99.90;;;;;;6234222;22;20768;31
2021/05/08 03:51:17;;;;;;;10.07;2.88;;;3.60;99.90;;;;;;6201256;22;20451;31
2021/05/08 04:02:50;;;;;;;8.70;3.17;;;3.50;99.90;;;;;;6333057;22;497978;31
2021/05/08 04:12:32;;;;;;;9.27;3.05;;;3.60;99.90;;;;;;6322701;22;20200;31
2021/05/08 04:31:55;;;;;;;7.72;3.10;;;4.00;99.90;;;;;;6322915;22;392127;31
2021/05/08 04:45:37;;;;;;;11.57;3.45;;;4.30;99.90;;;;;;6290410;22;20499;31
2021/05/08 04:59:18;;;;;;;7.55;3.70;;;4.70;99.90;;;;;;6291007;22;20549;31
2021/05/08 05:08:59;;;;;;;8.70;4.43;;;4.90;99.90;;;;;;6264462;22;20380;31
2021/05/08 05:15:07;;;;;;;8.27;3.65;;;5.10;99.90;;;;;;6135647;23;20200;31
2021/05/08 05:27:33;;;;;;;9.25;3.40;;;5.40;99.90;;;;;;6193383;22;20203;31
2021/05/08 05:39:45;;;;;;;8.32;3.30;;;5.80;99.90;;;;;;6193820;22;20187;31
2021/05/08 05:42:10;;;;;;;10.48;3.20;;;5.90;99.90;;;;;;6193208;22;20966;31
2021/05/08 05:46:03;;;;;;;11.40;3.45;;;5.90;99.90;;;;;;6234508;22;20518;31
2021/05/08 06:29:40;;;;;;;7.05;2.72;;;7.00;99.90;;;;;;6232337;22;20256;-61
2021/05/08 06:40:40;;;;;;;10.15;2.63;;;7.30;99.90;;;;;;6231146;22;20527;31
2021/05/08 07:22:22;;;;;;;4.13;1.70;;;8.70;99.90;;;;;;6199463;22;21456;31
2021/05/08 07:24:47;;;;;;;6.90;1.60;;;8.80;99.90;;;;;;6186157;22;393520;31
2021/05/08 07:42:28;;;;;;;6.05;1.70;;;8.90;99.90;;;;;;6224856;22;20198;31
2021/05/08 07:44:54;;;;;;;7.15;1.95;;;8.90;99.90;;;;;;6186551;22;658298;31
2021/05/08 07:58:31;;;;;;;6.25;2.05;;;9.40;99.90;;;;;;6210697;22;501996;31
2021/05/08 08:03:25;;;;;;;5.70;1.80;;;9.50;99.90;;;;;;6232331;22;20190;31
2021/05/08 08:09:36;;;;;;;5.45;2.03;;;9.80;99.90;;;;;;6204315;22;20206;31
2021/05/08 08:14:29;;;;;;;3.30;1.50;;;10.00;99.90;;;;;;6203074;22;20203;31
2021/05/08 08:32:03;;;;;;;5.93;1.60;;;10.10;99.90;;;;;;6188614;22;388436;-62
2021/05/08 08:40:28;;;;;;;3.05;1.20;;;10.30;99.90;;;;;;6208041;22;21834;31
2021/05/08 08:42:53;;;;;;;2.42;1.35;;;10.40;99.40;;;;;;6206022;22;20195;31
2021/05/08 09:00:57;;;;;;;5.35;1.70;;;10.90;98.00;;;;;;6269983;22;20513;31
2021/05/08 09:05:48;;;;;;;2.85;1.30;;;10.70;97.90;;;;;;6250016;22;396825;31
2021/05/08 09:27:00;;;;;;;7.75;1.65;;;11.00;96.90;;;;;;6198196;22;20577;-62
2021/05/08 09:29:25;;;;;;;4.68;1.65;;;11.10;96.00;;;;;;6174177;23;20211;31
2021/05/08 09:39:06;;;;;;;5.00;1.38;;;12.10;95.80;;;;;;6186740;22;399678;31
2021/05/08 09:53:43;;;;;;;3.70;1.30;;;12.70;94.20;;;;;;6228581;22;20528;31
2021/05/08 10:05:28;;;;;;;3.78;1.48;;;13.10;92.50;;;;;;6166035;22;394042;31
2021/05/08 10:29:50;;;;;;;5.75;1.70;;;12.80;86.40;;;;;;6182146;22;20207;31
2021/05/08 11:09:39;;;;;;;2.45;1.60;;;14.70;75.70;;;;;;6290892;22;21358;31
2021/05/08 11:51:02;;;;;;;3.88;1.70;;;14.90;66.80;;;;;;6206717;22;20531;31
2021/05/08 12:03:10;;;;;;;6.07;2.20;;;14.30;69.40;;;;;;6183948;22;391487;31
2021/05/08 12:27:30;;;;;;;3.88;1.70;;;14.80;68.30;;;;;;6172889;23;20416;31
2021/05/08 12:33:54;;;;;;;4.03;1.77;;;15.20;65.00;;;;;;6261623;22;20236;31
2021/05/08 12:44:44;;;;;;;4.70;1.35;;;15.90;64.30;;;;;;6204726;22;20527;31
2021/05/08 13:00:30;;;;;;;2.65;1.27;;;16.30;58.90;;;;;;6172363;22;20210;31
2021/05/08 13:04:44;;;;;;;1.58;1.10;;;16.40;58.90;;;;;;6293910;22;20536;-62
2021/05/08 13:28:38;;;;;;;1.20;1.00;;;17.50;52.80;;;;;;6253483;22;20224;31
2021/05/08 13:52:52;;;;;;;2.50;1.30;;;17.10;48.40;;;;;;6259787;22;20194;31
2021/05/08 13:57:42;;;;;;;2.15;1.05;;;17.00;50.00;;;;;;6243119;22;390870;31
2021/05/08 14:02:33;;;;;;;2.13;1.02;;;17.20;49.50;;;;;;6283986;22;20194;-64
2021/05/08 14:04:59;;;;;;;4.43;1.20;;;17.20;48.60;;;;;;6285765;22;20591;-64
2021/05/08 14:07:24;;;;;;;2.25;1.10;;;17.10;48.00;;;;;;6285405;22;20495;-63
2021/05/08 14:09:53;;;;;;;1.27;1.00;;;17.00;48.10;;;;;;6285474;22;20149;-63
2021/05/08 14:12:18;;;;;;;2.20;0.90;;;16.90;47.00;;;;;;6258465;22;20143;-62
2021/05/08 14:14:44;;;;;;;3.35;1.15;;;16.60;46.10;;;;;;6285241;22;20153;-63
2021/05/08 14:17:09;;;;;;;2.33;1.10;;;16.40;46.30;;;;;;6285492;22;20199;-63
2021/05/08 14:19:35;;;;;;;2.78;1.25;;;16.40;47.10;;;;;;6285118;22;20618;-62
2021/05/08 14:22:00;;;;;;;1.98;0.90;;;16.50;47.50;;;;;;6285215;22;20135;-63
2021/05/08 14:24:26;;;;;;;2.05;0.90;;;16.80;47.50;;;;;;6285192;22;20171;-63
2021/05/08 14:26:51;;;;;;;2.15;1.00;;;17.00;46.60;;;;;;6285034;22;20135;-63
2021/05/08 14:29:17;;;;;;;2.25;1.20;;;17.20;46.70;;;;;;6285009;22;20161;-63
2021/05/08 14:31:42;;;;;;;2.42;1.10;;;17.50;45.70;;;;;;6285104;22;20139;-62
2021/05/08 14:34:08;;;;;;;2.25;1.17;;;17.60;45.40;;;;;;6285076;22;20139;-63
2021/05/08 14:36:34;;;;;;;2.83;0.80;;;17.80;45.70;;;;;;6279921;22;20150;-63
2021/05/08 14:38:59;;;;;;;1.52;0.88;;;18.30;45.80;;;;;;6278510;22;20480;-63
2021/05/08 14:41:25;;;;;;;3.28;1.05;;;18.70;45.10;;;;;;6278529;22;20437;-63
2021/05/08 14:43:51;;;;;;;1.50;0.90;;;19.00;44.30;;;;;;6278013;22;20254;-63
2021/05/08 14:46:17;;;;;;;4.03;1.52;;;19.20;43.00;;;;;;6278246;22;20150;-63
2021/05/08 14:48:42;;;;;;;3.40;1.05;;;19.20;43.10;;;;;;6278128;22;20193;-63
2021/05/08 14:51:08;;;;;;;3.08;1.38;;;19.40;43.40;;;;;;6278543;22;20143;-63
2021/05/08 14:53:33;;;;;;;1.88;1.00;;;19.80;43.70;;;;;;6278380;22;20587;-64
2021/05/08 14:56:02;;;;;;;4.35;1.15;;;20.30;43.70;;;;;;6278444;22;20154;-64
2021/05/08 14:58:32;;;;;;;2.97;1.13;;;20.80;43.40;;;;;;6278298;22;20158;-64
2021/05/08 15:00:57;;;;;;;1.70;0.95;;;21.40;42.90;;;;;;6278045;22;20181;-63
2021/05/08 15:03:23;;;;;;;2.83;1.17;;;21.70;42.00;;;;;;6278056;22;20236;-64
2021/05/08 15:05:49;;;;;;;2.55;1.10;;;22.00;41.20;;;;;;6278031;22;20150;-64
2021/05/08 15:08:16;;;;;;;2.15;1.10;;;22.10;40.40;;;;;;6277870;22;20193;-63
2021/05/08 15:17:26;;;;;;;1.65;1.00;;;22.20;39.50;;;;;;6277790;22;20170;-64
2021/05/08 15:19:51;;;;;;;2.50;1.10;;;22.40;38.90;;;;;;6277848;22;20532;-64
2021/05/08 15:22:17;;;;;;;2.22;1.30;;;22.50;38.60;;;;;;6277591;22;20566;-65
2021/05/08 15:24:42;;;;;;;1.95;1.02;;;22.80;38.60;;;;;;6277505;22;20316;-64
2021/05/08 15:27:08;;;;;;;1.38;1.00;;;23.20;38.50;;;;;;6277780;22;20143;-64
2021/05/08 15:29:36;;;;;;;3.65;1.40;;;23.60;38.10;;;;;;6277415;22;20575;-65
2021/05/08 15:32:02;;;;;;;3.97;1.10;;;23.90;37.50;;;;;;6277372;22;20135;-64
2021/05/08 15:34:28;;;;;;;2.17;1.17;;;23.90;37.10;;;;;;6277254;22;20197;-64
2021/05/08 15:36:53;;;;;;;1.50;1.00;;;23.70;37.00;;;;;;6277475;22;20222;-64
2021/05/08 15:39:19;;;;;;;3.80;1.35;;;23.30;36.80;;;;;;6277277;22;20143;-64
2021/05/08 15:41:44;;;;;;;2.17;0.98;;;22.90;37.00;;;;;;6277689;22;20158;-64
2021/05/08 15:44:10;;;;;;;2.15;1.00;;;22.40;37.30;;;;;;6277487;22;20167;-64
2021/05/08 15:46:35;;;;;;;2.17;0.93;;;21.90;37.70;;;;;;6276984;22;20147;-64
2021/05/08 15:49:03;;;;;;;2.78;1.35;;;21.50;38.30;;;;;;6276749;22;20139;-64
2021/05/08 15:51:29;;;;;;;3.60;1.33;;;21.10;38.70;;;;;;6250243;22;20437;-63
2021/05/08 15:53:55;;;;;;;2.22;1.08;;;20.70;38.90;;;;;;6277152;22;20150;-64
2021/05/08 15:56:22;;;;;;;2.78;1.50;;;20.40;39.20;;;;;;6277393;22;20154;-64
2021/05/08 15:58:47;;;;;;;2.78;1.05;;;20.00;39.30;;;;;;6277237;22;20457;-64
2021/05/08 16:01:13;;;;;;;1.80;1.10;;;19.70;40.10;;;;;;6276976;22;20143;-64
2021/05/08 16:03:39;;;;;;;1.98;1.05;;;19.90;40.90;;;;;;6276804;22;20173;-65
2021/05/08 16:06:06;;;;;;;2.35;1.05;;;20.20;40.80;;;;;;6277028;22;20484;-65
2021/05/08 16:08:32;;;;;;;2.15;1.13;;;20.40;40.40;;;;;;6277083;22;20196;-64
2021/05/08 16:10:57;;;;;;;3.38;1.45;;;20.50;40.10;;;;;;6276791;22;20135;-64
2021/05/08 16:13:23;;;;;;;2.20;1.25;;;20.60;40.00;;;;;;6276740;22;20136;-65
2021/05/08 16:15:48;;;;;;;2.88;1.27;;;20.60;40.00;;;;;;6277078;22;20547;-64
2021/05/08 16:18:14;;;;;;;2.75;1.33;;;20.70;40.10;;;;;;6276368;22;20155;-65
2021/05/08 16:20:40;;;;;;;4.25;1.42;;;20.70;39.80;;;;;;6276912;22;20605;-64
2021/05/08 16:23:05;;;;;;;1.95;1.17;;;20.70;39.70;;;;;;6276737;22;20333;-64
2021/05/08 16:25:31;;;;;;;3.65;1.50;;;20.70;39.70;;;;;;6276652;22;20606;-64
2021/05/08 16:27:56;;;;;;;2.22;1.13;;;20.50;39.70;;;;;;6276946;22;20701;-64
2021/05/08 16:30:22;;;;;;;2.95;1.40;;;20.20;39.90;;;;;;6276297;22;20139;-64
2021/05/08 16:32:48;;;;;;;2.53;1.30;;;20.00;40.10;;;;;;6276484;22;20440;-64
2021/05/08 16:35:14;;;;;;;2.75;1.65;;;19.80;40.50;;;;;;6276172;22;20494;-64
2021/05/08 16:37:39;;;;;;;3.45;1.88;;;19.50;40.80;;;;;;6276696;22;20150;-64
2021/05/08 16:40:06;;;;;;;2.20;1.60;;;19.30;41.10;;;;;;6276405;22;20420;-63
2021/05/08 16:42:31;;;;;;;1.90;1.25;;;19.10;41.50;;;;;;6276436;22;20161;-63
2021/05/08 16:44:57;;;;;;;2.65;1.23;;;18.90;41.80;;;;;;6276268;22;20583;-63
2021/05/08 16:47:42;;;;;;;2.20;1.20;;;18.70;42.00;;;;;;6276445;22;20149;-63
2021/05/08 16:50:10;;;;;;;2.47;1.40;;;18.40;42.20;;;;;;6276704;22;20123;-65
2021/05/08 16:52:36;;;;;;;4.18;1.50;;;18.20;42.70;;;;;;6276623;22;20139;-63
2021/05/08 16:55:03;;;;;;;3.58;1.23;;;18.00;43.10;;;;;;6276513;22;20143;-63
2021/05/08 16:57:29;;;;;;;5.72;1.50;;;17.80;43.50;;;;;;6276598;22;20150;-63
2021/05/08 16:59:54;;;;;;;2.15;1.27;;;17.60;44.10;;;;;;6276132;22;20170;-64
2021/05/08 17:02:20;;;;;;;2.70;1.45;;;17.40;44.70;;;;;;6276390;22;20147;-63
2021/05/08 17:04:45;;;;;;;2.17;1.30;;;17.10;45.20;;;;;;6276153;22;20171;-64
2021/05/08 17:07:12;;;;;;;2.25;1.50;;;16.90;45.50;;;;;;6276452;22;20218;-64
2021/05/08 17:09:48;;;;;;;2.80;1.40;;;16.70;46.00;;;;;;6250338;22;20216;-63
2021/05/08 17:12:16;;;;;;;3.65;1.60;;;16.50;46.50;;;;;;6276532;22;20540;-64
2021/05/08 17:14:45;;;;;;;2.88;1.65;;;16.40;47.20;;;;;;6276288;22;20143;-63
2021/05/08 17:17:11;;;;;;;5.05;2.00;;;16.20;47.80;;;;;;6276353;22;20150;-64
2021/05/08 17:19:37;;;;;;;3.78;1.55;;;16.00;48.20;;;;;;6276321;22;20163;-63
2021/05/08 17:22:04;;;;;;;1.80;1.42;;;15.80;48.60;;;;;;6276869;22;20158;-64
2021/05/08 17:24:29;;;;;;;2.78;1.55;;;15.70;49.10;;;;;;6277375;22;20198;-64
2021/05/08 17:26:55;;;;;;;2.45;1.45;;;15.50;49.50;;;;;;6276660;22;20216;-63
2021/05/08 17:29:22;;;;;;;2.72;1.58;;;15.30;49.80;;;;;;6276337;22;20146;-64
2021/05/08 17:31:48;;;;;;;3.83;1.92;;;15.20;50.00;;;;;;6276911;22;20143;-63
2021/05/08 17:34:13;;;;;;;2.63;1.45;;;15.10;50.40;;;;;;6276792;22;20147;-63
2021/05/08 17:36:39;;;;;;;3.63;1.58;;;15.00;50.60;;;;;;6276966;22;20220;-63
2021/05/08 17:39:04;;;;;;;2.03;1.50;;;14.80;50.70;;;;;;6249792;22;20525;-63
2021/05/08 17:41:32;;;;;;;2.58;1.27;;;14.70;51.00;;;;;;6276439;22;20154;-63
2021/05/08 17:43:58;;;;;;;1.58;1.45;;;14.60;51.30;;;;;;6276141;22;20167;-63
2021/05/08 17:46:24;;;;;;;4.28;1.52;;;14.50;51.60;;;;;;6276128;22;20157;-63
2021/05/08 17:48:49;;;;;;;2.38;1.40;;;14.40;51.80;;;;;;6276630;22;20157;-64
2021/05/08 17:51:15;;;;;;;3.33;1.60;;;14.30;52.10;;;;;;6276162;22;20136;-64
2021/05/08 17:53:40;;;;;;;3.33;1.92;;;14.20;52.40;;;;;;6276214;22;20144;-64
2021/05/08 17:56:06;;;;;;;4.38;1.55;;;14.10;52.70;;;;;;6276162;22;20152;-64
2021/05/08 17:58:31;;;;;;;2.58;1.83;;;14.00;53.00;;;;;;6276233;22;20544;-64
2021/05/08 18:00:57;;;;;;;3.85;2.45;;;13.90;53.20;;;;;;6276101;22;20139;-63
2021/05/08 18:03:22;;;;;;;2.63;2.20;;;13.80;53.50;;;;;;6276033;22;20571;-64
2021/05/08 18:05:48;;;;;;;3.58;2.20;;;13.80;53.90;;;;;;6276300;22;20591;-64
2021/05/08 18:08:13;;;;;;;3.28;2.08;;;13.70;54.10;;;;;;6276408;22;20181;-65
2021/05/08 18:10:39;;;;;;;3.35;1.73;;;13.60;54.40;;;;;;6276270;22;20545;-64
2021/05/08 18:13:04;;;;;;;2.60;1.95;;;13.50;54.70;;;;;;6277996;22;20143;-65
2021/05/08 18:15:30;;;;;;;4.25;2.20;;;13.40;55.00;;;;;;6277948;22;20206;-64
2021/05/08 18:17:55;;;;;;;4.93;2.22;;;13.40;55.40;;;;;;6277725;22;20176;-63
2021/05/08 18:20:21;;;;;;;2.83;2.28;;;13.30;55.80;;;;;;6277652;22;20214;-65
2021/05/08 18:22:47;;;;;;;3.75;2.67;;;13.20;56.00;;;;;;6277894;22;20214;-64
2021/05/08 18:25:13;;;;;;;3.65;2.60;;;13.20;56.40;;;;;;6277710;22;20561;-64
2021/05/08 18:27:40;;;;;;;4.05;2.20;;;13.10;56.60;;;;;;6277681;22;20444;-67
2021/05/08 18:30:06;;;;;;;3.08;2.22;;;13.00;57.00;;;;;;6277659;22;20472;-66
2021/05/08 18:32:32;;;;;;;2.25;1.77;;;13.00;57.30;;;;;;6277633;22;20155;-65
2021/05/08 18:34:59;;;;;;;5.38;2.22;;;12.90;57.50;;;;;;6277854;22;20170;-66
2021/05/08 18:37:25;;;;;;;2.80;1.77;;;12.90;57.70;;;;;;6277916;22;20214;-69
2021/05/08 18:39:50;;;;;;;3.63;1.88;;;12.80;58.10;;;;;;6278229;22;20583;-66
2021/05/08 18:42:15;;;;;;;2.67;1.83;;;12.70;58.30;;;;;;6250859;22;20204;-66
2021/05/08 18:44:41;;;;;;;3.25;2.00;;;12.70;58.70;;;;;;6277351;22;20453;-66
2021/05/08 18:47:06;;;;;;;3.00;1.95;;;12.60;59.00;;;;;;6277576;22;20139;-66
2021/05/08 18:49:32;;;;;;;3.05;1.83;;;12.60;59.40;;;;;;6277437;22;20140;-66
2021/05/08 18:51:58;;;;;;;2.55;2.15;;;12.50;59.70;;;;;;6277613;22;20139;-66
2021/05/08 18:54:24;;;;;;;2.38;2.17;;;12.40;60.00;;;;;;6277402;22;20150;-66
2021/05/08 18:56:50;;;;;;;2.22;1.80;;;12.40;60.40;;;;;;6277729;22;20162;-66
2021/05/08 18:59:15;;;;;;;2.90;2.13;;;12.30;60.80;;;;;;6277397;22;20223;-65
2021/05/08 19:01:41;;;;;;;3.25;2.10;;;12.30;61.20;;;;;;6277104;22;20150;-65
2021/05/08 19:04:06;;;;;;;2.65;1.95;;;12.20;61.60;;;;;;6277197;22;20175;-66
2021/05/08 19:06:32;;;;;;;3.20;2.17;;;12.20;62.20;;;;;;6277031;22;20371;-65
2021/05/08 19:08:57;;;;;;;2.58;2.05;;;12.10;62.50;;;;;;6277090;22;20616;-65
2021/05/08 19:11:23;;;;;;;3.55;2.90;;;12.10;63.00;;;;;;6277449;22;20143;-65
2021/05/08 19:13:48;;;;;;;2.20;1.95;;;12.00;63.40;;;;;;6277493;22;20797;-65
2021/05/08 19:16:14;;;;;;;2.40;2.20;;;12.00;63.90;;;;;;6276982;22;20154;-65
2021/05/08 19:18:41;;;;;;;3.72;2.00;;;12.00;64.40;;;;;;6277198;22;20178;-65
2021/05/08 19:21:07;;;;;;;3.63;2.30;;;11.90;64.80;;;;;;6277031;22;20470;-66
2021/05/08 19:23:33;;;;;;;2.28;2.03;;;11.90;65.20;;;;;;6277068;22;20248;-66
2021/05/08 19:25:58;;;;;;;2.38;2.17;;;11.90;65.80;;;;;;6277413;22;20144;-66
2021/05/08 19:28:23;;;;;;;3.63;2.03;;;11.80;66.10;;;;;;6277536;22;20147;-66
2021/05/08 19:30:49;;;;;;;2.53;2.00;;;11.80;66.60;;;;;;6276998;22;20132;-65
2021/05/08 19:33:14;;;;;;;2.63;1.80;;;11.70;67.00;;;;;;6277148;22;20136;-65
2021/05/08 19:35:40;;;;;;;2.85;2.08;;;11.70;67.40;;;;;;6276746;22;20155;-66
2021/05/08 19:38:08;;;;;;;2.08;1.77;;;11.70;67.70;;;;;;6277293;22;20231;-65
2021/05/08 19:40:35;;;;;;;2.13;1.90;;;11.70;68.10;;;;;;6276840;22;20218;-65
2021/05/08 19:43:01;;;;;;;3.35;2.00;;;11.70;68.40;;;;;;6277401;22;20237;-66
2021/05/08 19:45:26;;;;;;;2.72;1.90;;;11.60;68.70;;;;;;6276717;22;20176;-65
2021/05/08 19:47:52;;;;;;;3.50;2.15;;;11.60;69.00;;;;;;6276907;22;20167;-64
2021/05/08 19:50:17;;;;;;;3.03;2.00;;;11.60;69.50;;;;;;6276960;22;20598;-66
2021/05/08 19:52:44;;;;;;;4.75;2.38;;;11.60;70.10;;;;;;6276968;22;20139;-67
2021/05/08 19:55:11;;;;;;;3.22;2.50;;;11.50;70.40;;;;;;6277366;22;20156;-66
2021/05/08 19:57:36;;;;;;;4.07;2.60;;;11.50;71.00;;;;;;6276764;22;20239;-65
2021/05/08 20:00:04;;;;;;;3.22;2.80;;;11.50;71.40;;;;;;6277219;22;20164;-65
2021/05/08 20:02:29;;;;;;;5.63;3.53;;;11.50;71.60;;;;;;6276800;22;20691;-66
2021/05/08 20:04:55;;;;;;;3.78;3.30;;;11.50;71.90;;;;;;6277060;22;20167;-65
2021/05/08 20:07:20;;;;;;;4.82;3.30;;;11.50;72.20;;;;;;6277024;22;20546;-65
2021/05/08 20:09:46;;;;;;;5.65;3.53;;;11.40;72.30;;;;;;6276781;22;20154;-65
2021/05/08 20:12:17;;;;;;;6.63;3.90;;;11.40;72.60;;;;;;6276500;22;20202;-65
2021/05/08 20:14:44;;;;;;;5.20;3.42;;;11.40;73.10;;;;;;6276828;22;20151;-65
2021/05/08 20:17:10;;;;;;;4.40;2.97;;;11.40;73.50;;;;;;6277353;22;20179;-65
2021/05/08 20:19:37;;;;;;;4.07;3.67;;;11.40;73.80;;;;;;6249878;22;20163;-66
2021/05/08 20:22:04;;;;;;;4.57;3.40;;;11.40;74.10;;;;;;6249875;22;20140;-65
2021/05/08 20:24:29;;;;;;;5.63;2.90;;;11.40;74.50;;;;;;6276737;22;20166;-65
2021/05/08 20:26:55;;;;;;;4.78;2.67;;;11.40;74.60;;;;;;6276708;22;20144;-66
2021/05/08 20:29:22;;;;;;;4.28;2.78;;;11.40;74.60;;;;;;6277098;22;20158;-66
2021/05/08 20:31:47;;;;;;;4.80;3.03;;;11.40;74.40;;;;;;6276638;22;20446;-67
2021/05/08 20:34:13;;;;;;;3.63;2.83;;;11.40;74.30;;;;;;6277001;22;20140;-66
2021/05/08 20:36:39;;;;;;;3.55;2.80;;;11.40;74.30;;;;;;6277222;22;20144;-65
2021/05/08 20:39:08;;;;;;;4.13;3.30;;;11.50;74.20;;;;;;6277091;22;20143;-66
2021/05/08 20:41:34;;;;;;;4.53;3.40;;;11.50;73.80;;;;;;6277387;22;20143;-65
2021/05/08 20:44:00;;;;;;;4.25;2.80;;;11.50;73.70;;;;;;6276944;22;20464;-66
2021/05/08 20:46:25;;;;;;;3.03;2.53;;;11.60;73.60;;;;;;6276928;22;20143;-65
2021/05/08 20:48:51;;;;;;;3.53;3.22;;;11.60;73.60;;;;;;6250137;22;20147;-66
2021/05/08 20:51:16;;;;;;;5.00;2.90;;;11.60;73.60;;;;;;6277425;22;20155;-66
2021/05/08 20:53:42;;;;;;;3.25;2.70;;;11.60;73.70;;;;;;6276673;22;20140;-66
2021/05/08 20:56:07;;;;;;;3.38;2.85;;;11.60;73.70;;;;;;6276608;22;20135;-65
2021/05/08 20:58:33;;;;;;;5.93;3.20;;;11.60;74.00;;;;;;6277017;22;20196;-66
2021/05/08 21:00:58;;;;;;;4.85;3.25;;;11.60;74.30;;;;;;6276497;22;20610;-65
2021/05/08 21:03:24;;;;;;;4.32;3.70;;;11.60;74.60;;;;;;6276417;22;20140;-66
2021/05/08 21:05:52;;;;;;;5.72;3.70;;;11.50;75.20;;;;;;6276699;22;20175;-65
2021/05/08 21:08:19;;;;;;;4.88;3.40;;;11.50;75.20;;;;;;6276656;22;20227;-66
2021/05/08 21:10:44;;;;;;;3.28;2.97;;;11.50;75.60;;;;;;6276342;22;20166;-64
2021/05/08 21:13:10;;;;;;;3.40;3.10;;;11.50;75.90;;;;;;6276726;22;20548;-65
2021/05/08 21:15:35;;;;;;;4.75;3.47;;;11.50;76.30;;;;;;6276795;22;20158;-66
2021/05/08 21:18:01;;;;;;;3.58;2.50;;;11.50;76.60;;;;;;6275951;22;20597;-65
2021/05/08 21:20:26;;;;;;;3.15;2.85;;;11.50;76.90;;;;;;6276641;22;20159;-66
2021/05/08 21:22:52;;;;;;;3.15;2.88;;;11.50;77.40;;;;;;6276025;22;20139;-65
2021/05/08 21:25:17;;;;;;;3.72;2.97;;;11.40;77.60;;;;;;6276149;22;20221;-66
2021/05/08 21:27:43;;;;;;;4.05;3.10;;;11.40;78.40;;;;;;6276149;22;20143;-64
2021/05/08 21:30:09;;;;;;;4.50;3.30;;;11.40;78.70;;;;;;6276240;22;20154;-66
2021/05/08 21:32:35;;;;;;;4.13;3.42;;;11.40;79.30;;;;;;6275971;22;20466;-65
2021/05/08 21:35:00;;;;;;;5.03;3.28;;;11.40;79.70;;;;;;6276221;22;20150;-66
2021/05/08 21:37:26;;;;;;;3.72;3.40;;;11.40;80.20;;;;;;6276410;22;20456;-65
2021/05/08 21:39:51;;;;;;;3.92;3.00;;;11.30;80.60;;;;;;6276134;22;20544;-66
2021/05/08 21:42:17;;;;;;;5.45;3.40;;;11.30;81.10;;;;;;6276400;22;20144;-65
2021/05/08 21:44:42;;;;;;;3.95;3.53;;;11.30;81.50;;;;;;6276005;22;20579;-65
2021/05/08 21:47:08;;;;;;;3.95;3.05;;;11.30;82.20;;;;;;6277683;22;20140;-65
2021/05/08 21:49:33;;;;;;;3.95;3.28;;;11.20;82.90;;;;;;6278079;22;20149;-65
2021/05/08 21:51:59;;;;;;;3.40;3.10;;;11.20;83.20;;;;;;6278038;22;20459;-65
2021/05/08 21:54:24;;;;;;;3.97;3.15;;;11.20;83.50;;;;;;6278060;22;20147;-66
2021/05/08 21:56:49;;;;;;;3.53;3.13;;;11.20;84.10;;;;;;6278065;22;20206;-65
2021/05/08 21:59:15;;;;;;;4.88;3.00;;;11.20;84.40;;;;;;6278369;22;20174;-66
2021/05/08 22:01:40;;;;;;;6.15;3.50;;;11.20;84.40;;;;;;6278015;22;20448;-65
2021/05/08 22:04:06;;;;;;;3.28;2.97;;;11.20;84.50;;;;;;6277744;22;20175;-65
2021/05/08 22:06:32;;;;;;;4.07;3.53;;;11.20;84.50;;;;;;6277886;22;20143;-66
2021/05/08 22:08:57;;;;;;;4.90;3.03;;;11.20;84.60;;;;;;6278129;22;20154;-65
2021/05/08 22:11:22;;;;;;;4.53;3.05;;;11.20;84.70;;;;;;6277909;22;20651;-65
2021/05/08 22:13:48;;;;;;;3.35;3.05;;;11.20;84.90;;;;;;6277804;22;20143;-66
2021/05/08 22:16:14;;;;;;;3.47;3.17;;;11.20;84.90;;;;;;6277767;22;20170;-65
2021/05/08 22:18:41;;;;;;;7.60;3.10;;;11.10;84.80;;;;;;6277684;22;20163;-66
2021/05/08 22:21:06;;;;;;;3.53;3.20;;;11.20;84.90;;;;;;6277831;22;20239;-65
2021/05/08 22:23:32;;;;;;;3.17;2.88;;;11.20;84.90;;;;;;6277598;22;20170;-65
2021/05/08 22:25:57;;;;;;;3.72;2.83;;;11.20;84.90;;;;;;6278104;22;20154;-65
2021/05/08 22:28:23;;;;;;;3.83;3.10;;;11.20;85.10;;;;;;6277601;22;20191;-66
2021/05/08 22:30:48;;;;;;;4.50;2.88;;;11.20;85.20;;;;;;6277697;22;20196;-65
2021/05/08 22:33:15;;;;;;;3.92;2.85;;;11.20;85.30;;;;;;6277625;22;20212;-65
2021/05/08 22:35:41;;;;;;;3.97;3.33;;;11.20;85.50;;;;;;6278005;22;20231;-65
2021/05/08 22:38:06;;;;;;;4.78;3.22;;;11.20;85.80;;;;;;6277473;22;20209;-65
2021/05/08 22:40:32;;;;;;;4.38;3.35;;;11.20;86.30;;;;;;6277590;22;20618;-66
2021/05/08 22:42:57;;;;;;;4.80;3.40;;;11.20;87.00;;;;;;6277460;22;20209;-65
2021/05/08 22:45:23;;;;;;;3.58;3.28;;;11.10;87.30;;;;;;6277820;22;20165;-66
2021/05/08 22:47:48;;;;;;;4.18;3.30;;;11.10;87.80;;;;;;6277475;22;20144;-65
2021/05/08 22:50:16;;;;;;;3.83;3.10;;;11.10;88.50;;;;;;6277520;22;20162;-65
2021/05/08 22:52:44;;;;;;;4.97;3.00;;;11.10;89.30;;;;;;6277697;22;20139;-65
2021/05/08 22:55:10;;;;;;;4.13;3.40;;;11.10;90.00;;;;;;6277432;22;20150;-65
2021/05/08 22:57:36;;;;;;;3.20;2.90;;;11.10;90.30;;;;;;6277072;22;20556;-66
2021/05/08 23:00:08;;;;;;;4.53;3.30;;;11.00;90.70;;;;;;6277368;22;20200;-65
2021/05/08 23:02:34;;;;;;;5.50;3.30;;;11.00;90.90;;;;;;6277626;22;20143;-65
2021/05/08 23:05:00;;;;;;;4.10;3.30;;;11.00;91.20;;;;;;6277202;22;20588;-65
2021/05/08 23:07:27;;;;;;;3.30;3.00;;;11.00;91.50;;;;;;6277651;22;20144;-65
2021/05/08 23:09:52;;;;;;;3.83;3.03;;;11.00;91.80;;;;;;6250569;22;20155;-66
2021/05/08 23:12:18;;;;;;;5.15;3.22;;;11.00;92.10;;;;;;6277318;22;20451;-65
2021/05/08 23:14:43;;;;;;;3.78;3.17;;;11.00;92.30;;;;;;6277137;22;20153;-66
2021/05/08 23:17:09;;;;;;;3.33;2.95;;;11.00;92.50;;;;;;6277239;22;20147;-65
2021/05/08 23:19:34;;;;;;;4.45;3.05;;;11.00;93.00;;;;;;6277007;22;20166;-65
2021/05/08 23:22:00;;;;;;;4.03;3.00;;;11.00;93.30;;;;;;6277610;22;20143;-65
2021/05/08 23:24:25;;;;;;;4.07;3.03;;;10.90;93.70;;;;;;6250718;22;20471;-66
2021/05/08 23:26:51;;;;;;;6.05;3.65;;;10.90;94.00;;;;;;6277254;22;20424;-65
2021/05/08 23:29:16;;;;;;;4.18;2.75;;;10.90;94.40;;;;;;6277436;22;20155;-66
2021/05/08 23:31:42;;;;;;;3.90;3.05;;;10.90;94.80;;;;;;6277191;22;20462;-66
2021/05/08 23:34:10;;;;;;;4.00;3.60;;;10.80;95.20;;;;;;6277110;22;20140;-66
2021/05/08 23:36:36;;;;;;;3.78;3.38;;;10.80;95.60;;;;;;6277215;22;20201;-65
2021/05/08 23:39:03;;;;;;;5.20;3.50;;;10.80;96.10;;;;;;6277159;22;20215;-66
2021/05/08 23:41:30;;;;;;;3.80;3.25;;;10.70;96.40;;;;;;6277599;22;20147;-66
2021/05/08 23:43:55;;;;;;;3.65;3.35;;;10.70;96.90;;;;;;6276995;22;20163;-66
2021/05/08 23:46:21;;;;;;;5.05;3.38;;;10.70;97.40;;;;;;6277214;22;20243;-66
2021/05/08 23:48:47;;;;;;;4.22;3.30;;;10.60;98.10;;;;;;6277228;22;20154;-65
2021/05/08 23:51:12;;;;;;;4.20;3.58;;;10.50;98.70;;;;;;6277467;22;20135;-67
2021/05/08 23:53:38;;;;;;;4.57;3.50;;;10.50;99.10;;;;;;6277504;22;20621;-65
2021/05/08 23:56:04;;;;;;;3.65;3.35;;;10.40;99.70;;;;;;6277400;22;20140;-65
2021/05/08 23:58:30;;;;;;;4.25;3.67;;;10.40;99.90;;;;;;6277485;22;20147;-66
